createdAt,value
2023-02-07T00:01:10.070Z,-7.72
2023-02-07T00:03:37.345Z,-7.76
2023-02-07T00:06:10.049Z,-7.76
2023-02-07T00:08:38.602Z,-7.79
2023-02-07T00:11:07.221Z,-7.80
2023-02-07T00:13:34.769Z,-7.85
2023-02-07T00:16:03.186Z,-7.93
2023-02-07T00:18:30.418Z,-7.94
2023-02-07T00:21:02.937Z,-8.00
2023-02-07T00:23:30.300Z,-8.01
2023-02-07T00:25:57.360Z,-8.07
2023-02-07T00:28:24.677Z,-8.14
2023-02-07T00:30:52.306Z,-8.20
2023-02-07T00:33:19.523Z,-8.19
2023-02-07T00:35:46.693Z,-8.24
2023-02-07T00:38:13.735Z,-8.25
2023-02-07T00:40:40.781Z,-8.26
2023-02-07T00:43:08.074Z,-8.31
2023-02-07T00:45:35.306Z,-8.32
2023-02-07T00:48:02.867Z,-8.35
2023-02-07T00:50:29.896Z,-8.37
2023-02-07T00:52:56.981Z,-8.52
2023-02-07T00:55:24.027Z,-8.58
2023-02-07T00:57:51.181Z,-8.60
2023-02-07T01:00:18.315Z,-8.63
2023-02-07T01:02:45.557Z,-8.62
2023-02-07T01:05:12.691Z,-8.67
2023-02-07T01:07:40.018Z,-8.63
2023-02-07T01:10:07.678Z,-8.64
2023-02-07T01:12:34.946Z,-8.68
2023-02-07T01:15:02.429Z,-8.71
2023-02-07T01:17:29.580Z,-8.75
2023-02-07T01:19:58.680Z,-8.84
2023-02-07T01:22:26.853Z,-8.94
2023-02-07T01:24:55.029Z,-9.00
2023-02-07T01:27:23.318Z,-9.06
2023-02-07T01:29:50.702Z,-9.05
2023-02-07T01:32:17.959Z,-9.02
2023-02-07T01:34:45.256Z,-9.02
2023-02-07T01:37:12.651Z,-9.20
2023-02-07T01:39:39.898Z,-9.26
2023-02-07T01:42:07.347Z,-9.22
2023-02-07T01:44:37.431Z,-9.17
2023-02-07T01:47:04.546Z,-9.12
2023-02-07T01:49:34.326Z,-9.14
2023-02-07T01:52:08.806Z,-9.11
2023-02-07T01:54:36.658Z,-9.05
2023-02-07T01:57:07.264Z,-9.01
2023-02-07T01:59:36.018Z,-9.03
2023-02-07T02:02:04.621Z,-9.04
2023-02-07T02:04:31.983Z,-9.00
2023-02-07T02:06:59.895Z,-8.97
2023-02-07T02:09:27.509Z,-8.94
2023-02-07T02:12:03.854Z,-8.93
2023-02-07T02:14:55.375Z,-8.96
2023-02-07T02:17:40.182Z,-8.97
2023-02-07T02:20:44.739Z,-9.10
2023-02-07T02:23:20.579Z,-9.36
2023-02-07T02:26:05.610Z,-9.37
2023-02-07T02:29:00.710Z,-9.38
2023-02-07T02:31:51.867Z,-9.37
2023-02-07T02:34:38.707Z,-9.37
2023-02-07T02:37:36.326Z,-9.33
2023-02-07T02:40:08.100Z,-9.40
2023-02-07T02:42:42.431Z,-9.40
2023-02-07T02:45:16.886Z,-9.39
2023-02-07T02:47:45.803Z,-9.39
2023-02-07T02:50:15.776Z,-9.42
2023-02-07T02:52:50.517Z,-9.42
2023-02-07T02:55:22.735Z,-9.42
2023-02-07T02:58:11.547Z,-9.44
2023-02-07T03:00:46.635Z,-9.48
2023-02-07T03:03:49.171Z,-9.49
2023-02-07T03:06:35.301Z,-9.50
2023-02-07T03:09:30.212Z,-9.54
2023-02-07T03:12:22.229Z,-9.61
2023-02-07T03:14:53.290Z,-9.66
2023-02-07T03:17:25.030Z,-9.70
2023-02-07T03:20:30.841Z,-9.68
2023-02-07T03:22:59.213Z,-9.69
2023-02-07T03:25:27.748Z,-9.69
2023-02-07T03:27:56.111Z,-9.68
2023-02-07T03:30:26.611Z,-9.72
2023-02-07T03:32:58.594Z,-9.74
2023-02-07T03:36:06.054Z,-9.77
2023-02-07T03:38:33.179Z,-9.82
2023-02-07T03:41:05.344Z,-9.85
2023-02-07T03:43:33.614Z,-9.85
2023-02-07T03:46:00.733Z,-9.85
2023-02-07T03:48:27.798Z,-9.86
2023-02-07T03:50:54.883Z,-9.84
2023-02-07T03:53:21.950Z,-9.82
2023-02-07T03:55:49.021Z,-9.81
2023-02-07T03:58:16.064Z,-9.82
2023-02-07T04:00:43.157Z,-9.89
2023-02-07T04:03:10.528Z,-9.90
2023-02-07T04:05:38.127Z,-9.91
2023-02-07T04:08:05.483Z,-9.85
2023-02-07T04:10:32.569Z,-9.88
2023-02-07T04:12:59.632Z,-9.89
2023-02-07T04:15:26.830Z,-9.87
2023-02-07T04:17:53.851Z,-9.85
2023-02-07T04:20:21.017Z,-9.85
2023-02-07T04:22:48.263Z,-9.96
2023-02-07T04:25:15.359Z,-10.05
2023-02-07T04:27:42.524Z,-10.06
2023-02-07T04:30:10.151Z,-10.09
2023-02-07T04:32:37.203Z,-10.14
2023-02-07T04:35:04.591Z,-10.12
2023-02-07T04:37:32.039Z,-10.26
2023-02-07T04:39:59.136Z,-10.24
2023-02-07T04:42:26.191Z,-10.18
2023-02-07T04:44:53.300Z,-10.15
2023-02-07T04:47:20.365Z,-10.23
2023-02-07T04:49:47.487Z,-10.24
2023-02-07T04:52:14.668Z,-10.23
2023-02-07T04:54:41.734Z,-10.17
2023-02-07T04:57:08.905Z,-10.18
2023-02-07T04:59:35.973Z,-10.23
2023-02-07T05:02:03.010Z,-10.21
2023-02-07T05:04:30.144Z,-10.23
2023-02-07T05:06:58.181Z,-10.21
2023-02-07T05:09:25.517Z,-10.20
2023-02-07T05:11:52.655Z,-10.24
2023-02-07T05:14:19.742Z,-10.27
2023-02-07T05:16:46.996Z,-10.27
2023-02-07T05:19:14.072Z,-10.24
2023-02-07T05:21:41.145Z,-10.19
2023-02-07T05:24:08.273Z,-10.14
2023-02-07T05:26:35.352Z,-10.08
2023-02-07T05:29:02.512Z,-10.09
2023-02-07T05:32:06.861Z,-10.25
2023-02-07T05:34:34.077Z,-10.39
2023-02-07T05:37:01.120Z,-10.39
2023-02-07T05:39:28.183Z,-10.32
2023-02-07T05:41:55.268Z,-10.24
2023-02-07T05:44:22.800Z,-10.18
2023-02-07T05:46:51.777Z,-10.22
2023-02-07T05:49:19.668Z,-10.30
2023-02-07T05:51:46.697Z,-10.27
2023-02-07T05:54:13.721Z,-10.27
2023-02-07T05:56:40.772Z,-10.27
2023-02-07T05:59:07.831Z,-10.25
2023-02-07T06:01:37.322Z,-10.19
2023-02-07T06:04:04.583Z,-10.18
2023-02-07T06:06:31.636Z,-10.19
2023-02-07T06:08:58.678Z,-10.19
2023-02-07T06:11:25.977Z,-10.21
2023-02-07T06:13:53.050Z,-10.26
2023-02-07T06:16:20.186Z,-10.29
2023-02-07T06:18:47.292Z,-10.27
2023-02-07T06:21:14.347Z,-10.30
2023-02-07T06:23:41.445Z,-10.33
2023-02-07T06:26:08.725Z,-10.33
2023-02-07T06:28:35.758Z,-10.33
2023-02-07T06:31:03.002Z,-10.28
2023-02-07T06:33:30.540Z,-10.34
2023-02-07T06:35:57.562Z,-10.29
2023-02-07T06:38:24.599Z,-10.28
2023-02-07T06:40:51.817Z,-10.29
2023-02-07T06:43:18.892Z,-10.30
2023-02-07T06:45:46.042Z,-10.27
2023-02-07T06:48:13.217Z,-10.25
2023-02-07T06:50:40.241Z,-10.20
2023-02-07T06:53:07.258Z,-10.16
2023-02-07T06:55:39.564Z,-10.17
2023-02-07T06:58:07.262Z,-10.16
2023-02-07T07:00:34.312Z,-10.12
2023-02-07T07:03:01.803Z,-10.13
2023-02-07T07:05:29.705Z,-10.15
2023-02-07T07:07:57.060Z,-10.17
2023-02-07T07:10:24.215Z,-10.14
2023-02-07T07:12:51.259Z,-10.13
2023-02-07T07:15:18.365Z,-10.07
2023-02-07T07:17:45.414Z,-10.05
2023-02-07T07:20:13.047Z,-10.01
2023-02-07T07:22:40.089Z,-10.04
2023-02-07T07:25:07.202Z,-10.09
2023-02-07T07:27:34.380Z,-10.01
2023-02-07T07:30:01.505Z,-9.98
2023-02-07T07:32:34.340Z,-9.91
2023-02-07T07:35:02.621Z,-9.96
2023-02-07T07:37:29.739Z,-9.94
2023-02-07T07:39:57.139Z,-9.88
2023-02-07T07:42:24.200Z,-9.89
2023-02-07T07:44:51.360Z,-9.91
2023-02-07T07:47:18.977Z,-9.84
2023-02-07T07:49:46.083Z,-9.76
2023-02-07T07:52:13.098Z,-9.70
2023-02-07T07:54:40.136Z,-9.55
2023-02-07T07:57:07.199Z,-9.38
2023-02-07T07:59:34.286Z,-9.24
2023-02-07T08:02:01.400Z,-9.08
2023-02-07T08:04:28.465Z,-8.93
2023-02-07T08:06:55.600Z,-8.90
2023-02-07T08:09:22.642Z,-8.82
2023-02-07T08:11:49.701Z,-8.76
2023-02-07T08:14:17.375Z,-8.70
2023-02-07T08:16:44.432Z,-8.67
2023-02-07T08:19:11.663Z,-8.55
2023-02-07T08:21:38.768Z,-8.42
2023-02-07T08:24:06.048Z,-8.34
2023-02-07T08:26:33.072Z,-8.22
2023-02-07T08:29:00.234Z,-8.11
2023-02-07T08:31:27.411Z,-7.96
2023-02-07T08:33:54.590Z,-7.85
2023-02-07T08:36:21.961Z,-7.74
2023-02-07T08:38:49.045Z,-7.65
2023-02-07T08:41:16.182Z,-7.61
2023-02-07T08:43:43.240Z,-7.63
2023-02-07T08:46:10.392Z,-7.51
2023-02-07T08:48:37.584Z,-7.35
2023-02-07T08:51:09.011Z,-7.26
2023-02-07T08:53:37.031Z,-7.15
2023-02-07T08:56:04.728Z,-6.94
2023-02-07T08:58:32.212Z,-6.75
2023-02-07T09:00:59.418Z,-6.59
2023-02-07T09:03:26.616Z,-6.41
2023-02-07T09:05:58.987Z,-6.21
2023-02-07T09:08:26.232Z,-6.09
2023-02-07T09:10:53.349Z,-5.95
2023-02-07T09:13:20.423Z,-5.81
2023-02-07T09:15:55.890Z,-5.67
2023-02-07T09:18:24.089Z,-5.47
2023-02-07T09:20:51.413Z,-5.33
2023-02-07T09:23:19.202Z,-5.15
2023-02-07T09:25:49.498Z,-5.04
2023-02-07T09:28:17.825Z,-4.94
2023-02-07T09:30:45.835Z,-4.83
2023-02-07T09:33:13.793Z,-4.76
2023-02-07T09:35:43.790Z,-4.69
2023-02-07T09:38:17.154Z,-4.57
2023-02-07T09:40:45.516Z,-4.44
2023-02-07T09:43:22.484Z,-4.34
2023-02-07T09:45:54.277Z,-4.24
2023-02-07T09:48:32.181Z,-4.07
2023-02-07T09:51:00.809Z,-3.95
2023-02-07T09:53:54.437Z,-3.84
2023-02-07T09:56:22.377Z,-3.70
2023-02-07T09:59:00.669Z,-3.60
2023-02-07T10:01:33.525Z,-3.56
2023-02-07T10:04:12.825Z,-3.47
2023-02-07T10:06:41.665Z,-3.39
2023-02-07T10:09:12.785Z,-3.30
2023-02-07T10:11:45.791Z,-3.29
2023-02-07T10:14:34.133Z,-3.20
2023-02-07T10:17:25.730Z,-3.00
2023-02-07T10:20:10.298Z,-2.83
2023-02-07T10:23:03.308Z,-2.58
2023-02-07T10:25:39.520Z,-2.32
2023-02-07T10:28:26.772Z,-2.09
2023-02-07T10:30:57.462Z,-1.98
2023-02-07T10:33:34.464Z,-1.86
2023-02-07T10:36:07.262Z,-1.68
2023-02-07T10:38:40.214Z,-1.55
2023-02-07T10:41:20.561Z,-1.54
2023-02-07T10:43:47.892Z,-1.43
2023-02-07T10:46:16.543Z,-1.38
2023-02-07T10:48:43.684Z,-1.41
2023-02-07T10:51:35.610Z,-1.35
2023-02-07T10:54:11.394Z,-1.32
2023-02-07T10:56:44.623Z,-1.34
2023-02-07T10:59:30.157Z,-1.33
2023-02-07T11:01:57.440Z,-1.24
2023-02-07T11:04:39.229Z,-1.18
2023-02-07T11:07:07.957Z,-1.05
2023-02-07T11:09:38.046Z,-1.01
2023-02-07T11:12:23.512Z,-0.96
2023-02-07T11:15:01.330Z,-0.86
2023-02-07T11:17:29.160Z,-0.82
2023-02-07T11:19:56.304Z,-0.77
2023-02-07T11:22:24.541Z,-0.76
2023-02-07T11:24:53.691Z,-0.72
2023-02-07T11:27:21.848Z,-0.64
2023-02-07T11:29:56.166Z,-0.63
2023-02-07T11:32:25.627Z,-0.62
2023-02-07T11:34:56.819Z,-0.61
2023-02-07T11:37:43.501Z,-0.53
2023-02-07T11:40:19.281Z,-0.45
2023-02-07T11:42:58.976Z,-0.41
2023-02-07T11:45:27.263Z,-0.34
2023-02-07T11:47:56.282Z,-0.32
2023-02-07T11:50:32.273Z,-0.34
2023-02-07T11:53:00.962Z,-0.33
2023-02-07T11:55:35.168Z,-0.31
2023-02-07T11:58:08.687Z,-0.25
2023-02-07T12:00:36.950Z,-0.23
2023-02-07T12:03:08.084Z,-0.20
2023-02-07T12:05:41.942Z,-0.24
2023-02-07T12:08:15.627Z,-0.16
2023-02-07T12:10:45.113Z,-0.18
2023-02-07T12:13:19.941Z,-0.12
2023-02-07T12:16:02.600Z,0.00
2023-02-07T12:18:34.065Z,0.05
2023-02-07T12:21:12.375Z,0.09
2023-02-07T12:23:43.696Z,0.06
2023-02-07T12:26:23.657Z,0.11
2023-02-07T12:29:15.146Z,0.12
2023-02-07T12:31:57.021Z,0.07
2023-02-07T12:34:31.885Z,0.02
2023-02-07T12:37:05.532Z,0.01
2023-02-07T12:39:43.299Z,0.10
2023-02-07T12:42:39.528Z,0.23
2023-02-07T12:45:07.604Z,0.27
2023-02-07T12:47:59.643Z,0.36
2023-02-07T12:50:48.205Z,0.40
2023-02-07T12:53:28.441Z,0.46
2023-02-07T12:56:17.644Z,0.53
2023-02-07T12:59:02.444Z,0.58
2023-02-07T13:01:49.882Z,0.54
2023-02-07T13:04:52.282Z,0.48
2023-02-07T13:07:36.231Z,0.44
2023-02-07T13:10:23.237Z,0.44
2023-02-07T13:13:10.249Z,0.46
2023-02-07T13:15:42.687Z,0.47
2023-02-07T13:18:21.750Z,0.49
2023-02-07T13:20:54.371Z,0.51
2023-02-07T13:23:23.152Z,0.45
2023-02-07T13:25:57.868Z,0.47
2023-02-07T13:28:40.522Z,0.46
2023-02-07T13:31:11.483Z,0.46
2023-02-07T13:33:40.092Z,0.42
2023-02-07T13:36:36.122Z,0.34
2023-02-07T13:39:14.141Z,0.35
2023-02-07T13:42:09.892Z,0.30
2023-02-07T13:44:51.656Z,0.21
2023-02-07T13:47:31.665Z,0.20
2023-02-07T13:50:04.685Z,0.26
2023-02-07T13:52:43.791Z,0.18
2023-02-07T13:55:33.277Z,0.10
2023-02-07T13:58:19.187Z,0.04
2023-02-07T14:00:58.378Z,0.01
2023-02-07T14:03:35.678Z,0.02
2023-02-07T14:06:22.610Z,0.01
2023-02-07T14:09:24.215Z,-0.02
2023-02-07T14:12:01.634Z,-0.03
2023-02-07T14:14:31.063Z,-0.03
2023-02-07T14:17:04.001Z,-0.02
2023-02-07T14:19:45.408Z,0.01
2023-02-07T14:22:27.068Z,-0.01
2023-02-07T14:25:03.420Z,-0.03
2023-02-07T14:27:39.156Z,-0.03
2023-02-07T14:30:13.078Z,-0.02
2023-02-07T14:33:00.412Z,-0.02
2023-02-07T14:35:27.584Z,-0.02
2023-02-07T14:38:06.629Z,-0.05
2023-02-07T14:41:01.902Z,-0.10
2023-02-07T14:43:40.360Z,-0.10
2023-02-07T14:46:11.303Z,-0.16
2023-02-07T14:48:44.513Z,-0.15
2023-02-07T14:51:19.135Z,-0.15
2023-02-07T14:53:55.380Z,-0.21
2023-02-07T14:56:38.356Z,-0.24
2023-02-07T14:59:06.583Z,-0.24
2023-02-07T15:01:33.671Z,-0.26
2023-02-07T15:04:02.366Z,-0.24
2023-02-07T15:06:32.602Z,-0.26
2023-02-07T15:09:01.060Z,-0.27
2023-02-07T15:11:29.419Z,-0.29
2023-02-07T15:13:59.421Z,-0.31
2023-02-07T15:16:29.678Z,-0.26
2023-02-07T15:19:21.129Z,-0.24
2023-02-07T15:21:51.131Z,-0.25
2023-02-07T15:24:26.844Z,-0.29
2023-02-07T15:26:58.462Z,-0.33
2023-02-07T15:29:28.577Z,-0.42
2023-02-07T15:31:56.124Z,-0.49
2023-02-07T15:34:31.485Z,-0.57
2023-02-07T15:37:00.644Z,-0.62
2023-02-07T15:39:29.356Z,-0.72
2023-02-07T15:41:57.127Z,-0.83
2023-02-07T15:44:29.588Z,-0.92
2023-02-07T15:47:01.906Z,-1.03
2023-02-07T15:49:30.379Z,-1.06
2023-02-07T15:52:01.998Z,-1.10
2023-02-07T15:54:29.106Z,-1.15
2023-02-07T15:57:00.020Z,-1.17
2023-02-07T15:59:31.485Z,-1.27
2023-02-07T16:02:00.946Z,-1.27
2023-02-07T16:04:30.473Z,-1.39
2023-02-07T16:07:01.608Z,-1.40
2023-02-07T16:09:43.249Z,-1.40
2023-02-07T16:12:32.132Z,-1.42
2023-02-07T16:15:00.635Z,-1.48
2023-02-07T16:17:41.883Z,-1.52
2023-02-07T16:20:14.445Z,-1.56
2023-02-07T16:22:45.324Z,-1.62
2023-02-07T16:25:19.254Z,-1.70
2023-02-07T16:27:48.963Z,-1.77
2023-02-07T16:30:25.825Z,-1.82
2023-02-07T16:32:52.949Z,-1.87
2023-02-07T16:35:23.119Z,-1.87
2023-02-07T16:37:50.462Z,-1.91
2023-02-07T16:40:18.340Z,-1.97
2023-02-07T16:42:45.611Z,-2.03
2023-02-07T16:45:25.423Z,-2.05
2023-02-07T16:47:52.552Z,-2.08
2023-02-07T16:50:21.684Z,-2.14
2023-02-07T16:52:49.820Z,-2.18
2023-02-07T16:55:18.434Z,-2.21
2023-02-07T16:57:47.567Z,-2.25
2023-02-07T17:00:21.115Z,-2.29
2023-02-07T17:02:50.428Z,-2.32
2023-02-07T17:05:18.812Z,-2.38
2023-02-07T17:07:46.571Z,-2.51
2023-02-07T17:10:21.560Z,-2.59
2023-02-07T17:12:48.692Z,-2.61
2023-02-07T17:15:16.531Z,-2.65
2023-02-07T17:17:43.653Z,-2.67
2023-02-07T17:20:21.742Z,-2.74
2023-02-07T17:25:22.637Z,-2.80
2023-02-07T17:27:49.758Z,-2.81
2023-02-07T17:30:22.016Z,-2.86
2023-02-07T17:32:49.485Z,-2.91
2023-02-07T17:35:16.577Z,-2.91
2023-02-07T17:37:43.758Z,-2.95
2023-02-07T17:40:23.900Z,-2.96
2023-02-07T17:42:51.141Z,-2.97
2023-02-07T17:45:18.259Z,-3.01
2023-02-07T17:47:45.554Z,-3.07
2023-02-07T17:50:21.344Z,-3.13
2023-02-07T17:52:48.429Z,-3.14
2023-02-07T17:55:16.181Z,-3.21
2023-02-07T17:57:43.781Z,-3.24
2023-02-07T18:00:24.144Z,-3.27
2023-02-07T18:02:51.527Z,-3.31
2023-02-07T18:05:18.662Z,-3.34
2023-02-07T18:07:46.614Z,-3.38
2023-02-07T18:10:20.035Z,-3.42
2023-02-07T18:12:47.414Z,-3.44
2023-02-07T18:15:14.852Z,-3.50
2023-02-07T18:17:47.185Z,-3.56
2023-02-07T18:20:20.094Z,-3.64
2023-02-07T18:22:47.382Z,-3.65
2023-02-07T18:25:14.823Z,-3.69
2023-02-07T18:27:42.724Z,-3.71
2023-02-07T18:30:20.944Z,-3.71
2023-02-07T18:32:48.881Z,-3.74
2023-02-07T18:35:16.443Z,-3.79
2023-02-07T18:37:43.524Z,-3.78
2023-02-07T18:40:12.967Z,-3.78
2023-02-07T18:42:40.057Z,-3.76
2023-02-07T18:45:07.672Z,-3.79
2023-02-07T18:47:34.986Z,-3.83
2023-02-07T18:50:02.045Z,-3.88
2023-02-07T18:52:29.632Z,-3.92
2023-02-07T18:54:57.828Z,-3.95
2023-02-07T18:57:24.854Z,-3.97
2023-02-07T18:59:52.258Z,-4.07
2023-02-07T19:02:19.446Z,-4.09
2023-02-07T19:04:47.624Z,-4.11
2023-02-07T19:07:15.005Z,-4.20
2023-02-07T19:09:42.184Z,-4.26
2023-02-07T19:12:10.772Z,-4.29
2023-02-07T19:14:38.245Z,-4.33
2023-02-07T19:17:05.346Z,-4.38
2023-02-07T19:19:32.754Z,-4.53
2023-02-07T19:22:00.329Z,-4.62
2023-02-07T19:24:27.891Z,-4.68
2023-02-07T19:26:56.731Z,-4.64
2023-02-07T19:29:29.477Z,-4.65
2023-02-07T19:32:02.089Z,-4.69
2023-02-07T19:34:29.497Z,-4.74
2023-02-07T19:36:56.974Z,-4.76
2023-02-07T19:39:24.814Z,-4.83
2023-02-07T19:41:52.033Z,-4.83
2023-02-07T19:44:19.095Z,-4.86
2023-02-07T19:46:46.373Z,-4.89
2023-02-07T19:49:13.995Z,-4.91
2023-02-07T19:51:41.834Z,-4.96
2023-02-07T19:54:08.910Z,-4.98
2023-02-07T19:56:36.631Z,-5.02
2023-02-07T19:59:05.334Z,-5.05
2023-02-07T20:01:34.180Z,-5.11
2023-02-07T20:04:01.502Z,-5.17
2023-02-07T20:06:33.051Z,-5.22
2023-02-07T20:09:03.784Z,-5.28
2023-02-07T20:11:31.014Z,-5.26
2023-02-07T20:14:03.991Z,-5.26
2023-02-07T20:16:34.469Z,-5.31
2023-02-07T20:19:02.692Z,-5.34
2023-02-07T20:21:30.589Z,-5.39
2023-02-07T20:23:57.754Z,-5.44
2023-02-07T20:26:31.572Z,-5.44
2023-02-07T20:29:06.722Z,-5.43
2023-02-07T20:31:34.019Z,-5.40
2023-02-07T20:34:02.068Z,-5.42
2023-02-07T20:36:30.852Z,-5.43
2023-02-07T20:38:59.327Z,-5.46
2023-02-07T20:41:32.455Z,-5.43
2023-02-07T20:44:04.354Z,-5.44
2023-02-07T20:46:34.239Z,-5.49
2023-02-07T20:49:04.419Z,-5.50
2023-02-07T20:51:31.782Z,-5.58
2023-02-07T20:54:00.576Z,-5.65
2023-02-07T20:56:28.348Z,-5.69
2023-02-07T20:58:55.796Z,-5.74
2023-02-07T21:01:24.555Z,-5.81
2023-02-07T21:03:53.648Z,-5.81
2023-02-07T21:06:22.893Z,-5.81
2023-02-07T21:09:00.059Z,-5.84
2023-02-07T21:11:36.060Z,-5.85
2023-02-07T21:14:05.251Z,-5.90
2023-02-07T21:16:32.663Z,-5.91
2023-02-07T21:19:00.136Z,-5.89
2023-02-07T21:21:27.784Z,-5.87
2023-02-07T21:23:55.116Z,-5.87
2023-02-07T21:26:22.176Z,-5.93
2023-02-07T21:28:49.624Z,-5.97
2023-02-07T21:31:19.500Z,-6.00
2023-02-07T21:33:47.634Z,-6.06
2023-02-07T21:36:18.048Z,-6.13
2023-02-07T21:38:48.504Z,-6.14
2023-02-07T21:41:17.863Z,-6.15
2023-02-07T21:43:45.036Z,-6.17
2023-02-07T21:46:17.894Z,-6.19
2023-02-07T21:48:46.449Z,-6.24
2023-02-07T21:51:16.354Z,-6.28
2023-02-07T21:53:44.464Z,-6.29
2023-02-07T21:56:15.767Z,-6.48
2023-02-07T21:58:43.402Z,-6.62
2023-02-07T22:01:16.690Z,-6.68
2023-02-07T22:03:45.997Z,-6.64
2023-02-07T22:06:15.083Z,-6.63
2023-02-07T22:08:47.473Z,-6.68
2023-02-07T22:11:17.671Z,-6.66
2023-02-07T22:13:45.461Z,-6.69
2023-02-07T22:16:13.998Z,-6.81
2023-02-07T22:18:41.886Z,-6.93
2023-02-07T22:21:11.705Z,-6.92
2023-02-07T22:23:38.786Z,-6.92
2023-02-07T22:26:06.499Z,-6.95
2023-02-07T22:28:33.941Z,-6.96
2023-02-07T22:31:01.236Z,-6.93
2023-02-07T22:33:28.466Z,-6.91
2023-02-07T22:35:55.536Z,-6.88
2023-02-07T22:38:23.171Z,-6.87
2023-02-07T22:40:50.218Z,-6.96
2023-02-07T22:43:17.323Z,-6.99
2023-02-07T22:45:46.131Z,-6.98
2023-02-07T22:48:15.328Z,-7.07
2023-02-07T22:50:43.339Z,-7.09
2023-02-07T22:53:13.361Z,-7.12
2023-02-07T22:55:40.924Z,-7.16
2023-02-07T22:58:08.428Z,-7.11
2023-02-07T23:00:35.735Z,-7.13
2023-02-07T23:03:02.811Z,-7.12
2023-02-07T23:05:29.901Z,-7.13
2023-02-07T23:07:56.985Z,-7.13
2023-02-07T23:10:26.327Z,-7.10
2023-02-07T23:12:53.621Z,-7.07
2023-02-07T23:15:20.686Z,-7.12
2023-02-07T23:17:47.707Z,-7.14
2023-02-07T23:20:15.096Z,-7.20
2023-02-07T23:22:42.137Z,-7.16
2023-02-07T23:25:10.000Z,-7.14
2023-02-07T23:27:37.235Z,-7.17
2023-02-07T23:30:04.812Z,-7.15
2023-02-07T23:32:31.886Z,-7.19
2023-02-07T23:34:59.127Z,-7.29
2023-02-07T23:37:26.193Z,-7.31
2023-02-07T23:39:53.242Z,-7.40
2023-02-07T23:42:20.250Z,-7.40
2023-02-07T23:44:50.270Z,-7.39
2023-02-07T23:47:18.406Z,-7.41
2023-02-07T23:49:45.639Z,-7.46
2023-02-07T23:52:12.779Z,-7.47
2023-02-07T23:54:40.101Z,-7.47
2023-02-07T23:57:07.150Z,-7.47
2023-02-07T23:59:34.852Z,-7.53
